Accokeek, Maryland
Current Conditions -  °F | °C
As of 1:58 PM on Sunday 23 Nov 2014 (Local Time) from KDAA Reporting Station
Few Clouds Few Clouds  
Wind Chill: 56°   Ceiling: Unl
Heat Index: 56°   Visibility: 10mi
Dew Point: 28°   Wind: 3mph
Humidity: 34%   Direction: 170°S
Pressure: 30.13"   Gusts: NA
Location:  38.67°N, 77.03°W
Report Text: KDAA 231858Z AUTO 17003KT 10SM FEW180 13/M02 A3013 RMK AO2 SLP207 T01311025
Loading
Personal Weather Stations






























Interactive Weather Map New forecast layout! Learn more

10-Day Weather Forecast

Advertisements
Track Severe Weather on mobile